Time;durP1;ratioP1;P1;durP2;ratioP2;P2;SDS_P1;SDS_P2;PMS_P1;PMS_P2;Temp;Humidity;BMP_temperature;BMP_pressure;BME280_temperature;BME280_humidity;BME280_pressure;Samples;Min_cycle;Max_cycle;Signal;HPM_P1;HPM_P2
2021/12/15 00:02:23;;;;;;;31.17;13.70;;;;;;;;;;5099847;28;20020;-76
2021/12/15 00:04:51;;;;;;;31.70;13.25;;;;;;;;;;5100634;28;20281;-76
2021/12/15 00:07:22;;;;;;;32.65;14.07;;;;;;;;;;5101177;28;20032;-76
2021/12/15 00:09:48;;;;;;;31.15;13.77;;;;;;;;;;5100185;28;20189;-76
2021/12/15 00:12:14;;;;;;;32.45;13.23;;;;;;;;;;5100845;28;20015;-76
2021/12/15 00:14:42;;;;;;;31.02;13.68;;;;;;;;;;5100833;28;20024;-76
2021/12/15 00:17:08;;;;;;;29.30;12.77;;;;;;;;;;5100906;28;20020;-76
2021/12/15 00:19:34;;;;;;;30.77;13.27;;;;;;;;;;5100569;28;20058;-79
2021/12/15 00:22:00;;;;;;;34.13;14.25;;;;;;;;;;5099615;28;20023;-75
2021/12/15 00:24:26;;;;;;;35.53;14.52;;;;;;;;;;5099671;28;20091;-76
2021/12/15 00:26:53;;;;;;;34.35;13.80;;;;;;;;;;5100732;28;20211;-76
2021/12/15 00:29:19;;;;;;;33.05;14.02;;;;;;;;;;5100484;28;20054;-76
2021/12/15 00:31:46;;;;;;;33.67;14.38;;;;;;;;;;5100815;28;20096;-76
2021/12/15 00:34:12;;;;;;;36.05;14.65;;;;;;;;;;5100306;28;20016;-76
2021/12/15 00:36:39;;;;;;;33.97;14.10;;;;;;;;;;5100622;28;20039;-76
2021/12/15 00:39:05;;;;;;;34.92;14.35;;;;;;;;;;5100143;28;20016;-76
2021/12/15 00:41:31;;;;;;;37.75;14.98;;;;;;;;;;5100785;28;20387;-77
2021/12/15 00:43:58;;;;;;;38.67;15.48;;;;;;;;;;5100447;28;20035;-76
2021/12/15 00:46:23;;;;;;;36.85;14.98;;;;;;;;;;5100311;28;20045;-76
2021/12/15 00:48:50;;;;;;;37.55;14.98;;;;;;;;;;5100447;28;20143;-76
2021/12/15 00:51:15;;;;;;;36.78;15.50;;;;;;;;;;5100068;28;20066;-77
2021/12/15 00:53:41;;;;;;;31.83;13.90;;;;;;;;;;5099324;28;20332;-77
2021/12/15 00:56:06;;;;;;;35.47;14.10;;;;;;;;;;5100315;28;20016;-77
2021/12/15 00:58:31;;;;;;;32.53;13.80;;;;;;;;;;5099949;28;20020;-76
2021/12/15 01:01:01;;;;;;;35.80;15.07;;;;;;;;;;5100065;28;20028;-76
2021/12/15 01:03:26;;;;;;;34.35;13.95;;;;;;;;;;5100351;28;20137;-76
2021/12/15 01:05:59;;;;;;;31.50;13.90;;;;;;;;;;5099903;28;20016;-76
2021/12/15 01:08:29;;;;;;;34.33;14.32;;;;;;;;;;5100088;28;20031;-76
2021/12/15 01:22:00;;;;;;;34.80;14.10;;;;;;;;;;5099862;28;20031;-76
2021/12/15 01:24:26;;;;;;;36.33;15.43;;;;;;;;;;5099440;28;20309;-76
2021/12/15 01:26:51;;;;;;;37.80;14.85;;;;;;;;;;5099866;28;20188;-75
2021/12/15 01:29:17;;;;;;;33.92;14.60;;;;;;;;;;5099565;28;20215;-76
2021/12/15 01:31:43;;;;;;;33.72;14.45;;;;;;;;;;5096313;28;20221;-76
2021/12/15 01:34:08;;;;;;;34.97;15.52;;;;;;;;;;5099529;28;20101;-76
2021/12/15 01:36:42;;;;;;;36.47;15.77;;;;;;;;;;5103885;28;20028;-76
2021/12/15 01:39:08;;;;;;;35.28;15.75;;;;;;;;;;5102131;28;20367;-76
2021/12/15 01:41:34;;;;;;;37.08;16.23;;;;;;;;;;5103600;28;20043;-75
2021/12/15 01:46:59;;;;;;;35.92;14.90;;;;;;;;;;5103702;28;20040;-75
2021/12/15 01:49:37;;;;;;;38.08;15.02;;;;;;;;;;5103733;28;20227;-76
2021/12/15 01:52:21;;;;;;;38.03;15.32;;;;;;;;;;5100811;28;20028;-75
2021/12/15 01:54:54;;;;;;;34.47;16.08;;;;;;;;;;5103478;28;20083;-76
2021/12/15 01:57:21;;;;;;;38.45;15.93;;;;;;;;;;5103330;28;20114;-76
2021/12/15 01:59:48;;;;;;;37.63;15.80;;;;;;;;;;5103397;28;20045;-76
2021/12/15 02:02:16;;;;;;;36.75;15.85;;;;;;;;;;5101963;28;20099;-76
2021/12/15 02:04:41;;;;;;;40.63;16.88;;;;;;;;;;5100745;28;20047;-75
2021/12/15 02:07:13;;;;;;;37.63;15.65;;;;;;;;;;5102778;28;20032;-76
2021/12/15 02:12:23;;;;;;;37.42;15.68;;;;;;;;;;5102706;28;20016;-76
2021/12/15 02:14:49;;;;;;;36.40;15.20;;;;;;;;;;5101809;28;20039;-76
2021/12/15 02:17:15;;;;;;;38.53;15.70;;;;;;;;;;5103241;28;20096;-75
2021/12/15 02:19:41;;;;;;;35.80;15.27;;;;;;;;;;5102883;28;20028;-76
2021/12/15 02:22:10;;;;;;;36.13;15.65;;;;;;;;;;5102408;28;20043;-76
2021/12/15 02:24:37;;;;;;;37.40;15.80;;;;;;;;;;5102892;28;20024;-75
2021/12/15 02:27:04;;;;;;;39.25;15.15;;;;;;;;;;5102977;28;20064;-75
2021/12/15 02:29:34;;;;;;;40.70;15.63;;;;;;;;;;5103336;28;20093;-75
2021/12/15 02:32:18;;;;;;;40.03;14.13;;;;;;;;;;5103066;28;20028;-75
2021/12/15 02:37:22;;;;;;;42.17;15.95;;;;;;;;;;5090167;28;20044;-75
2021/12/15 02:39:59;;;;;;;37.50;15.07;;;;;;;;;;5103052;28;20032;-76
2021/12/15 02:42:35;;;;;;;39.75;14.73;;;;;;;;;;5103772;28;20016;-75
2021/12/15 02:45:01;;;;;;;41.05;14.68;;;;;;;;;;5097030;28;20016;-75
2021/12/15 02:47:30;;;;;;;40.08;14.07;;;;;;;;;;5083322;28;20032;-75
2021/12/15 02:49:58;;;;;;;41.03;15.50;;;;;;;;;;5083286;28;20028;-76
2021/12/15 02:52:24;;;;;;;39.30;15.10;;;;;;;;;;5089326;28;20272;-76
2021/12/15 02:54:50;;;;;;;37.78;13.75;;;;;;;;;;5113244;28;20018;-75
2021/12/15 02:57:17;;;;;;;41.25;14.55;;;;;;;;;;5124033;28;20236;-76
2021/12/15 03:02:55;;;;;;;40.63;14.13;;;;;;;;;;5103787;28;20045;-76
2021/12/15 03:05:25;;;;;;;43.30;14.93;;;;;;;;;;5103251;28;20020;-75
2021/12/15 03:08:05;;;;;;;38.78;13.75;;;;;;;;;;5103579;28;20212;-76
2021/12/15 03:16:01;;;;;;;49.40;15.20;;;;;;;;;;5103180;28;20073;-76
2021/12/15 03:18:28;;;;;;;44.33;13.80;;;;;;;;;;5103012;28;20020;-75
2021/12/15 03:21:00;;;;;;;39.20;14.13;;;;;;;;;;5103031;28;20024;-76
2021/12/15 03:23:33;;;;;;;39.88;14.30;;;;;;;;;;5103086;28;20020;-76
2021/12/15 03:26:00;;;;;;;44.25;13.82;;;;;;;;;;5101809;28;20043;-75
2021/12/15 03:34:14;;;;;;;39.38;13.55;;;;;;;;;;5102948;28;20031;-76
2021/12/15 03:39:24;;;;;;;45.97;15.68;;;;;;;;;;5103272;28;20273;-75
2021/12/15 03:41:57;;;;;;;43.85;14.43;;;;;;;;;;5102838;28;20024;-76
2021/12/15 03:44:23;;;;;;;40.08;14.40;;;;;;;;;;5102774;28;20319;-77
2021/12/15 03:46:49;;;;;;;38.30;14.02;;;;;;;;;;5102515;28;20046;-78
2021/12/15 03:49:14;;;;;;;40.17;14.32;;;;;;;;;;5102586;28;20028;-75
2021/12/15 03:51:40;;;;;;;43.83;15.02;;;;;;;;;;5102559;28;20087;-78
2021/12/15 03:54:05;;;;;;;39.65;14.43;;;;;;;;;;5101158;28;20040;-77
2021/12/15 03:56:31;;;;;;;36.17;13.77;;;;;;;;;;5101235;28;20020;-77
2021/12/15 03:58:57;;;;;;;39.80;13.68;;;;;;;;;;5101756;28;20071;-77
2021/12/15 04:01:23;;;;;;;44.50;15.02;;;;;;;;;;5102428;28;20016;-77
2021/12/15 04:03:51;;;;;;;40.78;14.45;;;;;;;;;;5102634;28;20024;-77
2021/12/15 04:06:21;;;;;;;37.72;14.13;;;;;;;;;;5102387;28;20027;-76
2021/12/15 04:08:47;;;;;;;35.53;13.95;;;;;;;;;;5102449;28;20339;-77
2021/12/15 04:11:15;;;;;;;39.13;14.82;;;;;;;;;;5101933;28;20024;-77
2021/12/15 04:13:41;;;;;;;38.00;14.48;;;;;;;;;;5101897;28;20031;-77
2021/12/15 04:16:08;;;;;;;39.72;14.15;;;;;;;;;;5101955;28;20087;-77
2021/12/15 04:18:36;;;;;;;41.63;14.18;;;;;;;;;;5102096;28;20027;-77
2021/12/15 04:21:03;;;;;;;37.90;14.57;;;;;;;;;;5102006;28;20027;-76
2021/12/15 04:23:29;;;;;;;38.60;14.32;;;;;;;;;;5101686;28;20050;-76
2021/12/15 04:25:57;;;;;;;38.55;14.65;;;;;;;;;;5101929;28;20016;-76
2021/12/15 04:28:35;;;;;;;32.47;13.10;;;;;;;;;;5101693;28;20036;-76
2021/12/15 04:31:05;;;;;;;37.50;14.63;;;;;;;;;;5101345;28;20038;-76
2021/12/15 04:33:41;;;;;;;36.92;14.18;;;;;;;;;;5101797;28;20312;-76
2021/12/15 04:36:09;;;;;;;36.08;14.15;;;;;;;;;;5101415;28;20012;-76
2021/12/15 04:38:37;;;;;;;36.80;14.05;;;;;;;;;;5101449;28;20028;-76
2021/12/15 04:41:07;;;;;;;36.97;13.48;;;;;;;;;;5101235;28;20413;-76
2021/12/15 04:43:35;;;;;;;39.65;14.20;;;;;;;;;;5100990;28;20051;-76
2021/12/15 04:46:03;;;;;;;35.97;14.13;;;;;;;;;;5101434;28;20016;-76
2021/12/15 04:48:28;;;;;;;33.00;13.35;;;;;;;;;;5101417;28;20024;-76
2021/12/15 04:50:54;;;;;;;32.53;13.30;;;;;;;;;;5101248;28;20047;-76
2021/12/15 04:53:19;;;;;;;35.72;13.70;;;;;;;;;;5101247;28;20020;-76
2021/12/15 04:55:45;;;;;;;33.45;14.13;;;;;;;;;;5101198;28;20246;-76
2021/12/15 04:58:12;;;;;;;37.00;14.38;;;;;;;;;;5099887;28;20062;-76
2021/12/15 05:00:48;;;;;;;32.88;13.48;;;;;;;;;;5101292;28;20055;-76
2021/12/15 05:03:14;;;;;;;31.17;13.30;;;;;;;;;;5101268;28;20020;-76
2021/12/15 05:05:39;;;;;;;30.58;13.23;;;;;;;;;;5099864;28;20043;-76
2021/12/15 05:08:06;;;;;;;30.85;13.05;;;;;;;;;;5101394;28;20024;-76
2021/12/15 05:10:32;;;;;;;33.78;13.55;;;;;;;;;;5100314;28;20100;-76
2021/12/15 05:12:58;;;;;;;34.03;13.20;;;;;;;;;;5100996;28;20019;-76
2021/12/15 05:15:25;;;;;;;30.17;13.23;;;;;;;;;;5100936;28;20256;-76
2021/12/15 05:17:51;;;;;;;32.78;13.13;;;;;;;;;;5100963;28;20020;-76
2021/12/15 05:20:16;;;;;;;31.48;12.60;;;;;;;;;;5101249;28;20323;-76
2021/12/15 05:22:42;;;;;;;31.73;12.50;;;;;;;;;;5101150;28;20123;-76
2021/12/15 05:25:09;;;;;;;30.83;13.15;;;;;;;;;;5101046;28;20347;-76
2021/12/15 05:27:36;;;;;;;32.95;12.95;;;;;;;;;;5100946;28;20089;-76
2021/12/15 05:30:04;;;;;;;31.33;13.07;;;;;;;;;;5100946;28;20037;-76
2021/12/15 05:32:29;;;;;;;29.38;12.32;;;;;;;;;;5101005;28;20028;-76
2021/12/15 05:34:58;;;;;;;35.17;13.13;;;;;;;;;;5100903;28;20053;-76
2021/12/15 05:37:23;;;;;;;34.78;12.90;;;;;;;;;;5101125;28;20065;-76
2021/12/15 05:39:51;;;;;;;28.08;12.35;;;;;;;;;;5100960;28;20047;-75
2021/12/15 05:42:19;;;;;;;32.50;12.95;;;;;;;;;;5100695;28;20034;-76
2021/12/15 05:44:46;;;;;;;29.88;13.45;;;;;;;;;;5100634;28;20364;-76
2021/12/15 05:47:11;;;;;;;32.55;12.88;;;;;;;;;;5100913;28;20023;-76
2021/12/15 05:49:37;;;;;;;28.33;12.20;;;;;;;;;;5100451;28;20059;-76
2021/12/15 05:52:03;;;;;;;32.17;13.38;;;;;;;;;;5100892;28;20073;-77
2021/12/15 05:54:29;;;;;;;30.25;13.20;;;;;;;;;;5100586;28;20024;-76
2021/12/15 05:56:55;;;;;;;30.23;13.25;;;;;;;;;;5100727;28;20032;-76
2021/12/15 05:59:20;;;;;;;34.80;13.23;;;;;;;;;;5100759;28;20055;-76
2021/12/15 06:01:46;;;;;;;34.42;13.25;;;;;;;;;;5101005;28;20032;-76
2021/12/15 06:04:13;;;;;;;36.75;13.18;;;;;;;;;;5100850;28;20020;-76
2021/12/15 06:06:39;;;;;;;26.35;12.07;;;;;;;;;;5099401;28;20106;-76
2021/12/15 06:09:07;;;;;;;32.28;12.90;;;;;;;;;;5100632;28;20027;-76
2021/12/15 06:11:33;;;;;;;32.80;12.57;;;;;;;;;;5099184;28;20031;-76
2021/12/15 06:13:59;;;;;;;33.15;13.30;;;;;;;;;;5100527;28;20073;-76
2021/12/15 06:16:24;;;;;;;35.28;13.52;;;;;;;;;;5100599;28;20037;-76
2021/12/15 06:18:52;;;;;;;31.70;13.60;;;;;;;;;;5100741;28;20087;-76
2021/12/15 06:21:19;;;;;;;33.35;13.52;;;;;;;;;;5102044;28;20017;-76
2021/12/15 06:23:47;;;;;;;29.90;13.43;;;;;;;;;;5104317;28;20227;-76
2021/12/15 06:26:13;;;;;;;29.85;13.20;;;;;;;;;;5103921;28;20024;-76
2021/12/15 06:28:38;;;;;;;30.85;14.23;;;;;;;;;;5103853;28;20024;-76
2021/12/15 06:31:07;;;;;;;28.00;12.98;;;;;;;;;;5104083;28;20110;-76
2021/12/15 06:33:35;;;;;;;34.95;13.77;;;;;;;;;;5102742;28;20024;-76
2021/12/15 06:36:03;;;;;;;31.98;13.20;;;;;;;;;;5102936;28;20346;-77
2021/12/15 06:38:35;;;;;;;34.22;13.90;;;;;;;;;;5103902;28;20069;-77
2021/12/15 06:41:01;;;;;;;29.05;12.52;;;;;;;;;;5103586;28;20087;-76
2021/12/15 06:43:30;;;;;;;33.60;13.10;;;;;;;;;;5103732;28;20048;-76
2021/12/15 06:59:20;;;;;;;31.67;12.73;;;;;;;;;;5102521;28;20244;-75
2021/12/15 07:01:49;;;;;;;27.80;12.73;;;;;;;;;;5098783;28;20200;-78
2021/12/15 07:04:15;;;;;;;25.98;11.98;;;;;;;;;;5109087;28;20197;-76
2021/12/15 07:06:40;;;;;;;29.33;12.50;;;;;;;;;;5102882;28;20031;-77
2021/12/15 07:09:06;;;;;;;29.95;13.35;;;;;;;;;;5102807;28;20396;-74
2021/12/15 07:11:32;;;;;;;29.83;13.57;;;;;;;;;;5103005;28;20027;-76
2021/12/15 07:13:57;;;;;;;26.35;12.65;;;;;;;;;;5101651;28;20037;-75
2021/12/15 07:16:24;;;;;;;29.55;13.10;;;;;;;;;;5082251;28;20020;-75
2021/12/15 07:19:05;;;;;;;36.17;14.20;;;;;;;;;;5081930;28;20024;-75
2021/12/15 07:21:35;;;;;;;32.00;13.85;;;;;;;;;;5081164;28;20016;-75
2021/12/15 07:24:01;;;;;;;31.70;13.90;;;;;;;;;;5082455;28;20040;-77
2021/12/15 07:26:27;;;;;;;32.35;13.95;;;;;;;;;;5081090;28;20229;-77
2021/12/15 07:28:53;;;;;;;28.17;13.00;;;;;;;;;;5082589;28;20067;-77
2021/12/15 07:31:19;;;;;;;29.67;12.55;;;;;;;;;;5082348;28;20028;-77
2021/12/15 07:33:45;;;;;;;31.75;12.48;;;;;;;;;;5081692;28;20059;-77
2021/12/15 07:36:11;;;;;;;32.97;13.10;;;;;;;;;;5081066;28;20086;-78
2021/12/15 07:38:41;;;;;;;29.52;13.45;;;;;;;;;;5076458;28;20028;-77
2021/12/15 07:41:22;;;;;;;30.52;13.20;;;;;;;;;;5094932;28;20052;-75
2021/12/15 07:43:48;;;;;;;33.35;13.90;;;;;;;;;;5102455;28;20269;-76
2021/12/15 07:46:13;;;;;;;30.70;13.35;;;;;;;;;;5102646;28;20085;-77
2021/12/15 07:48:40;;;;;;;31.73;13.52;;;;;;;;;;5102689;28;20069;-76
2021/12/15 07:51:07;;;;;;;34.10;13.48;;;;;;;;;;5100164;28;20058;-75
2021/12/15 07:53:33;;;;;;;32.63;14.45;;;;;;;;;;5074265;28;20036;-75
2021/12/15 07:55:59;;;;;;;33.40;13.73;;;;;;;;;;5086940;28;20063;-75
2021/12/15 07:58:26;;;;;;;32.30;13.45;;;;;;;;;;5074707;28;20036;-77
2021/12/15 08:00:52;;;;;;;36.42;13.00;;;;;;;;;;5093973;28;20332;-74
2021/12/15 08:03:19;;;;;;;36.85;13.55;;;;;;;;;;5094760;28;20024;-75
2021/12/15 08:05:50;;;;;;;32.90;12.43;;;;;;;;;;5075788;28;20020;-75
2021/12/15 08:08:16;;;;;;;30.30;12.75;;;;;;;;;;5072867;28;20055;-76
2021/12/15 08:10:42;;;;;;;32.63;12.90;;;;;;;;;;5074321;28;20316;-75
2021/12/15 08:13:08;;;;;;;28.63;13.10;;;;;;;;;;5080289;28;20043;-77
2021/12/15 08:15:34;;;;;;;33.53;13.32;;;;;;;;;;5093479;28;20071;-75
2021/12/15 08:18:03;;;;;;;32.08;12.88;;;;;;;;;;5092112;28;20024;-78
2021/12/15 08:20:30;;;;;;;27.92;13.23;;;;;;;;;;5101981;28;20263;-75
2021/12/15 08:22:56;;;;;;;30.80;12.57;;;;;;;;;;5101845;28;20300;-78
2021/12/15 08:25:22;;;;;;;32.30;13.13;;;;;;;;;;5100575;28;20027;-79
2021/12/15 08:27:50;;;;;;;27.48;12.45;;;;;;;;;;5101962;28;20064;-79
2021/12/15 08:30:20;;;;;;;28.45;11.93;;;;;;;;;;5101844;28;20036;-80
2021/12/15 08:32:49;;;;;;;27.08;11.68;;;;;;;;;;5101858;28;20040;-74
2021/12/15 08:35:15;;;;;;;27.52;11.43;;;;;;;;;;5101454;28;20027;-75
2021/12/15 08:37:41;;;;;;;24.25;11.85;;;;;;;;;;5101499;28;20016;-77
2021/12/15 08:40:07;;;;;;;24.58;11.05;;;;;;;;;;5101562;28;20220;-76
2021/12/15 08:42:32;;;;;;;25.02;10.95;;;;;;;;;;5101496;28;20058;-76
2021/12/15 08:44:58;;;;;;;22.48;11.18;;;;;;;;;;5101046;28;20058;-76
2021/12/15 08:47:23;;;;;;;26.10;11.65;;;;;;;;;;5101451;28;20047;-80
2021/12/15 08:49:49;;;;;;;28.02;11.85;;;;;;;;;;5101009;28;20304;-77
2021/12/15 08:52:15;;;;;;;26.58;12.15;;;;;;;;;;5101220;28;20054;-77
2021/12/15 08:54:40;;;;;;;28.00;12.02;;;;;;;;;;5101277;28;20095;-77
2021/12/15 08:57:07;;;;;;;24.92;12.73;;;;;;;;;;5101079;28;20020;-78
2021/12/15 08:59:33;;;;;;;26.52;12.05;;;;;;;;;;5101347;28;20032;-77
2021/12/15 09:01:59;;;;;;;27.67;12.82;;;;;;;;;;5101756;28;20048;-77
2021/12/15 09:04:24;;;;;;;23.80;11.45;;;;;;;;;;5101235;28;20140;-77
2021/12/15 09:06:50;;;;;;;27.85;11.88;;;;;;;;;;5101291;28;20212;-77
2021/12/15 09:09:20;;;;;;;24.77;11.48;;;;;;;;;;5101114;28;20263;-77
2021/12/15 09:11:46;;;;;;;26.98;11.85;;;;;;;;;;5101160;28;20047;-77
2021/12/15 09:14:12;;;;;;;28.50;12.27;;;;;;;;;;5101111;28;20336;-80
2021/12/15 09:16:40;;;;;;;24.17;10.88;;;;;;;;;;5100999;28;20034;-79
2021/12/15 09:19:06;;;;;;;24.80;12.13;;;;;;;;;;5101157;28;20140;-78
2021/12/15 09:21:34;;;;;;;25.30;11.23;;;;;;;;;;5101370;28;20024;-82
2021/12/15 09:24:02;;;;;;;22.63;11.25;;;;;;;;;;5101241;28;20229;-78
2021/12/15 09:26:28;;;;;;;30.15;12.02;;;;;;;;;;5100917;28;20036;-79
2021/12/15 09:28:54;;;;;;;23.23;11.65;;;;;;;;;;5100947;28;20279;-80
2021/12/15 09:31:19;;;;;;;25.33;11.68;;;;;;;;;;5100786;28;20028;-78
2021/12/15 09:33:48;;;;;;;24.33;11.70;;;;;;;;;;5101350;28;20053;-77
2021/12/15 09:36:16;;;;;;;23.33;12.15;;;;;;;;;;5100770;28;20020;-79
2021/12/15 09:38:43;;;;;;;25.00;11.73;;;;;;;;;;5101025;28;20020;-79
2021/12/15 09:41:11;;;;;;;27.75;11.63;;;;;;;;;;5100953;28;20324;-78
2021/12/15 09:43:37;;;;;;;25.20;12.13;;;;;;;;;;5100870;28;20020;-80
2021/12/15 09:46:36;;;;;;;23.25;11.63;;;;;;;;;;5102719;28;20243;-78
2021/12/15 09:57:30;;;;;;;20.70;10.60;;;;;;;;;;5103919;28;20049;-78
2021/12/15 10:02:54;;;;;;;23.50;9.73;;;;;;;;;;5104255;28;20058;-77
2021/12/15 10:05:39;;;;;;;19.38;9.95;;;;;;;;;;5103124;28;20043;-77
2021/12/15 10:19:41;;;;;;;23.52;10.43;;;;;;;;;;5104175;28;20344;-77
2021/12/15 10:22:47;;;;;;;19.90;9.65;;;;;;;;;;5104430;28;20038;-77
2021/12/15 10:25:27;;;;;;;19.80;10.10;;;;;;;;;;5104181;28;20066;-77
2021/12/15 10:28:03;;;;;;;21.35;10.10;;;;;;;;;;5102462;28;20040;-80
2021/12/15 10:30:34;;;;;;;21.50;10.18;;;;;;;;;;5104007;28;20020;-77
2021/12/15 10:33:24;;;;;;;18.30;9.98;;;;;;;;;;5104034;28;20024;-77
2021/12/15 10:36:11;;;;;;;19.27;9.95;;;;;;;;;;5098461;28;20085;-81
2021/12/15 10:38:42;;;;;;;19.77;9.30;;;;;;;;;;5104015;28;20068;-76
2021/12/15 10:41:10;;;;;;;19.60;9.20;;;;;;;;;;5103435;28;20115;-78
2021/12/15 10:43:38;;;;;;;15.98;8.38;;;;;;;;;;5103458;28;20035;-77
2021/12/15 10:46:17;;;;;;;15.45;8.45;;;;;;;;;;5103557;28;20024;-77
2021/12/15 10:48:58;;;;;;;17.35;8.63;;;;;;;;;;5103685;28;20028;-78
2021/12/15 10:51:39;;;;;;;16.23;8.07;;;;;;;;;;5103481;28;20032;-77
2021/12/15 10:54:21;;;;;;;17.92;8.63;;;;;;;;;;5102314;28;20024;-77
2021/12/15 10:56:52;;;;;;;15.05;7.82;;;;;;;;;;5102973;28;20083;-78
2021/12/15 10:59:19;;;;;;;16.55;7.78;;;;;;;;;;5103136;28;20186;-77
2021/12/15 11:01:46;;;;;;;18.55;7.82;;;;;;;;;;5103489;28;20028;-77
2021/12/15 11:04:20;;;;;;;13.70;6.97;;;;;;;;;;5102247;28;20320;-77
2021/12/15 11:06:59;;;;;;;14.23;6.97;;;;;;;;;;5103309;28;20020;-77
2021/12/15 11:09:24;;;;;;;15.35;7.13;;;;;;;;;;5102982;28;20339;-77
2021/12/15 11:12:28;;;;;;;12.00;6.22;;;;;;;;;;5103007;28;20252;-78
2021/12/15 11:15:04;;;;;;;17.38;5.90;;;;;;;;;;5096586;28;20324;-78
2021/12/15 11:17:40;;;;;;;13.40;4.93;;;;;;;;;;5102900;28;20024;-77
2021/12/15 11:20:06;;;;;;;8.75;4.63;;;;;;;;;;5101681;28;20032;-77
2021/12/15 11:22:47;;;;;;;7.97;3.88;;;;;;;;;;5102999;28;20031;-78
2021/12/15 11:25:28;;;;;;;3.72;1.88;;;;;;;;;;5106302;28;20090;-74
2021/12/15 11:27:59;;;;;;;5.70;3.10;;;;;;;;;;5111795;28;20027;-79
2021/12/15 11:30:40;;;;;;;8.73;3.22;;;;;;;;;;5103129;28;20242;-79
2021/12/15 11:33:15;;;;;;;6.65;3.28;;;;;;;;;;5099907;28;20027;-79
2021/12/15 11:35:44;;;;;;;7.35;3.33;;;;;;;;;;5100617;28;20054;-79
2021/12/15 11:38:35;;;;;;;8.80;3.80;;;;;;;;;;5093898;28;20020;-79
2021/12/15 11:41:03;;;;;;;8.45;4.05;;;;;;;;;;5091573;28;20032;-78
2021/12/15 11:43:36;;;;;;;9.55;3.78;;;;;;;;;;5113385;28;20375;-78
2021/12/15 11:46:04;;;;;;;8.70;4.28;;;;;;;;;;5102270;28;20205;-78
2021/12/15 11:48:33;;;;;;;9.07;4.20;;;;;;;;;;5110694;28;20015;-79
2021/12/15 11:51:04;;;;;;;7.10;3.25;;;;;;;;;;5119954;28;20098;-78
2021/12/15 11:53:46;;;;;;;5.40;2.90;;;;;;;;;;5096740;28;20154;-78
2021/12/15 11:56:30;;;;;;;7.53;3.35;;;;;;;;;;5103118;28;20324;-79
2021/12/15 11:59:18;;;;;;;5.18;3.00;;;;;;;;;;5111139;28;20037;-79
2021/12/15 12:02:05;;;;;;;8.95;3.13;;;;;;;;;;5095786;28;20387;-79
2021/12/15 12:04:34;;;;;;;6.63;3.10;;;;;;;;;;5117090;28;20409;-79
2021/12/15 12:07:20;;;;;;;6.90;3.40;;;;;;;;;;5122358;28;20026;-78
2021/12/15 12:09:50;;;;;;;5.93;3.40;;;;;;;;;;5102994;28;20020;-79
2021/12/15 12:12:17;;;;;;;6.40;3.58;;;;;;;;;;5101985;28;20049;-78
2021/12/15 12:14:49;;;;;;;8.13;3.47;;;;;;;;;;5106445;28;20079;-78
2021/12/15 12:17:20;;;;;;;6.97;3.47;;;;;;;;;;5120018;28;20027;-79
2021/12/15 12:19:58;;;;;;;5.97;3.45;;;;;;;;;;5109114;28;20031;-80
2021/12/15 12:22:28;;;;;;;11.18;4.05;;;;;;;;;;5101925;28;20074;-78
2021/12/15 12:24:57;;;;;;;8.70;3.78;;;;;;;;;;5101688;28;20042;-81
2021/12/15 12:27:28;;;;;;;9.70;3.70;;;;;;;;;;5112663;28;20032;-82
2021/12/15 12:29:56;;;;;;;8.10;3.78;;;;;;;;;;5102408;28;20095;-82
2021/12/15 12:32:22;;;;;;;7.30;3.85;;;;;;;;;;5102259;28;20020;-82
2021/12/15 12:34:50;;;;;;;6.90;3.70;;;;;;;;;;5101991;28;20287;-82
2021/12/15 12:37:16;;;;;;;8.45;4.80;;;;;;;;;;5106742;28;20324;-82
2021/12/15 12:39:44;;;;;;;9.25;4.55;;;;;;;;;;5102505;28;20020;-81
2021/12/15 12:42:26;;;;;;;9.45;4.80;;;;;;;;;;5110750;28;20039;-81
2021/12/15 12:44:54;;;;;;;9.05;4.47;;;;;;;;;;5107520;28;20027;-81
2021/12/15 12:47:33;;;;;;;10.05;4.38;;;;;;;;;;5122248;28;20035;-84
2021/12/15 13:01:02;;;;;;;6.15;3.08;;;;;;;;;;5107048;28;20069;-80
2021/12/15 13:03:33;;;;;;;7.25;3.58;;;;;;;;;;5111150;28;20019;-81
2021/12/15 13:06:04;;;;;;;7.03;3.67;;;;;;;;;;5112307;28;20015;-82
2021/12/15 13:08:29;;;;;;;6.88;3.70;;;;;;;;;;5116504;28;20217;-82
2021/12/15 13:11:06;;;;;;;7.75;4.40;;;;;;;;;;5098732;28;20427;-83
2021/12/15 13:13:52;;;;;;;5.85;3.05;;;;;;;;;;5096297;28;20024;-79
2021/12/15 13:16:51;;;;;;;6.68;2.63;;;;;;;;;;5109194;28;20020;-82
2021/12/15 13:19:26;;;;;;;3.92;2.03;;;;;;;;;;5120177;28;20030;-82
2021/12/15 13:22:18;;;;;;;5.38;2.50;;;;;;;;;;5121368;28;20087;-84
2021/12/15 13:29:01;;;;;;;5.95;2.42;;;;;;;;;;5121321;28;20389;-82
2021/12/15 13:30:58;;;;;;;5.22;2.33;;;;;;;;;;5093054;28;20040;-78
2021/12/15 13:33:29;;;;;;;4.95;1.92;;;;;;;;;;5084828;28;20029;-78
2021/12/15 13:36:10;;;;;;;5.25;2.22;;;;;;;;;;5084942;28;20024;-79
2021/12/15 13:38:38;;;;;;;4.93;1.92;;;;;;;;;;5085251;28;20146;-83
2021/12/15 13:44:23;;;;;;;5.97;2.40;;;;;;;;;;5084328;28;20051;-81
2021/12/15 13:46:55;;;;;;;4.57;1.88;;;;;;;;;;5084205;28;20032;-79
2021/12/15 13:49:23;;;;;;;7.40;2.30;;;;;;;;;;5091856;28;20024;-81
2021/12/15 13:51:53;;;;;;;4.00;2.22;;;;;;;;;;5084812;28;20052;-85
2021/12/15 13:54:33;;;;;;;3.80;2.20;;;;;;;;;;5087390;28;20047;-79
2021/12/15 13:57:22;;;;;;;4.55;2.20;;;;;;;;;;5084722;28;20020;-78
2021/12/15 13:59:53;;;;;;;7.75;2.97;;;;;;;;;;5084194;28;20031;-82
2021/12/15 14:02:20;;;;;;;5.38;2.83;;;;;;;;;;5126074;28;20032;-80
2021/12/15 14:05:16;;;;;;;8.50;3.30;;;;;;;;;;5106929;28;20025;-80
2021/12/15 14:08:05;;;;;;;5.63;2.78;;;;;;;;;;5088614;28;20309;-82
2021/12/15 14:10:34;;;;;;;7.68;2.40;;;;;;;;;;5091439;28;20036;-80
2021/12/15 14:13:02;;;;;;;5.85;2.42;;;;;;;;;;5084061;28;20021;-79
2021/12/15 14:15:28;;;;;;;4.82;2.50;;;;;;;;;;5084854;28;20032;-79
2021/12/15 14:18:27;;;;;;;4.65;2.30;;;;;;;;;;5080719;28;20036;-78
2021/12/15 14:21:02;;;;;;;9.70;3.17;;;;;;;;;;5110462;28;20080;-78
2021/12/15 14:23:42;;;;;;;8.07;3.05;;;;;;;;;;5124132;28;20091;-77
2021/12/15 14:26:14;;;;;;;6.32;2.63;;;;;;;;;;5106835;28;20023;-77
2021/12/15 14:28:43;;;;;;;8.70;3.35;;;;;;;;;;5100978;28;20035;-77
2021/12/15 14:31:20;;;;;;;6.78;3.15;;;;;;;;;;5112571;28;20030;-77
2021/12/15 14:33:57;;;;;;;7.03;3.10;;;;;;;;;;5120193;28;20045;-76
2021/12/15 14:36:36;;;;;;;6.97;2.65;;;;;;;;;;5102294;28;20304;-76
2021/12/15 14:39:07;;;;;;;7.40;3.70;;;;;;;;;;5109844;28;20073;-77
2021/12/15 14:41:36;;;;;;;6.40;3.00;;;;;;;;;;5086042;28;20029;-77
2021/12/15 14:44:12;;;;;;;5.82;3.30;;;;;;;;;;5121889;27;20031;-77
2021/12/15 14:46:51;;;;;;;8.95;3.10;;;;;;;;;;5106885;28;20067;-77
2021/12/15 14:49:30;;;;;;;7.40;3.10;;;;;;;;;;5082933;28;20040;-76
2021/12/15 14:52:00;;;;;;;8.07;2.92;;;;;;;;;;5087559;28;20037;-77
2021/12/15 14:54:27;;;;;;;7.25;3.20;;;;;;;;;;5103478;28;20038;-77
2021/12/15 14:57:04;;;;;;;5.78;2.92;;;;;;;;;;5097074;28;20035;-77
2021/12/15 14:59:36;;;;;;;5.75;2.90;;;;;;;;;;5112652;28;20035;-77
2021/12/15 15:02:14;;;;;;;7.18;3.10;;;;;;;;;;5120344;28;20094;-77
2021/12/15 15:04:43;;;;;;;5.22;2.83;;;;;;;;;;5107257;28;20043;-77
2021/12/15 15:07:11;;;;;;;5.63;3.13;;;;;;;;;;5099679;28;20015;-76
2021/12/15 15:09:44;;;;;;;10.23;3.10;;;;;;;;;;5101072;28;20213;-76
2021/12/15 15:12:11;;;;;;;6.47;3.30;;;;;;;;;;5119293;28;20035;-76
2021/12/15 15:14:43;;;;;;;6.38;3.25;;;;;;;;;;5121225;28;20073;-78
2021/12/15 15:17:27;;;;;;;7.43;3.17;;;;;;;;;;5114545;28;20054;-76
2021/12/15 15:20:12;;;;;;;5.70;3.45;;;;;;;;;;5118150;28;20126;-78
2021/12/15 15:22:38;;;;;;;8.95;3.38;;;;;;;;;;5115458;28;20019;-78
2021/12/15 15:25:06;;;;;;;6.30;3.47;;;;;;;;;;5095771;28;20183;-78
2021/12/15 15:27:32;;;;;;;6.43;3.53;;;;;;;;;;5054089;28;1110902;-79
2021/12/15 15:30:02;;;;;;;7.25;3.72;;;;;;;;;;5102414;28;20024;-79
2021/12/15 15:32:31;;;;;;;6.80;3.83;;;;;;;;;;5104267;28;20024;-80
2021/12/15 15:35:00;;;;;;;15.35;4.00;;;;;;;;;;5123129;28;20023;-80
2021/12/15 15:37:25;;;;;;;7.13;3.72;;;;;;;;;;5123526;28;20030;-79
2021/12/15 15:40:15;;;;;;;5.60;2.70;;;;;;;;;;5118157;28;20019;-79
2021/12/15 15:42:43;;;;;;;4.88;2.55;;;;;;;;;;5086802;28;20351;-80
2021/12/15 15:45:32;;;;;;;5.70;2.85;;;;;;;;;;5087146;28;20019;-79
2021/12/15 15:47:59;;;;;;;5.93;2.97;;;;;;;;;;5111006;28;20026;-79
2021/12/15 15:50:26;;;;;;;3.92;2.20;;;;;;;;;;5121929;28;20064;-80
2021/12/15 15:52:54;;;;;;;5.05;2.47;;;;;;;;;;5092171;28;20026;-79
2021/12/15 15:55:21;;;;;;;4.32;2.90;;;;;;;;;;5105175;28;20058;-80
2021/12/15 15:58:07;;;;;;;6.10;2.33;;;;;;;;;;5120145;28;20027;-79
2021/12/15 16:00:38;;;;;;;3.97;2.30;;;;;;;;;;5104394;28;20046;-79
2021/12/15 16:03:07;;;;;;;5.50;2.58;;;;;;;;;;5086466;28;20059;-80
2021/12/15 16:05:33;;;;;;;6.78;2.65;;;;;;;;;;5094958;28;20115;-78
2021/12/15 16:07:59;;;;;;;4.28;2.40;;;;;;;;;;5109972;28;20023;-80
2021/12/15 16:10:29;;;;;;;4.40;2.38;;;;;;;;;;5103549;28;20206;-81
2021/12/15 16:13:00;;;;;;;4.97;2.60;;;;;;;;;;5081241;28;20048;-78
2021/12/15 16:16:09;;;;;;;5.43;2.83;;;;;;;;;;5101218;28;20099;-78